Time;durP1;ratioP1;P1;durP2;ratioP2;P2;SDS_P1;SDS_P2;PMS_P1;PMS_P2;Temp;Humidity;BMP_temperature;BMP_pressure;BME280_temperature;BME280_humidity;BME280_pressure;Samples;Min_cycle;Max_cycle;Signal;HPM_P1;HPM_P2
2023/12/01 00:01:32;;;;;;;3.40;2.90;;;;;;;17.48;54.41;96641.91;105163;1257;61341;-32
2023/12/01 00:03:59;;;;;;;4.60;2.40;;;;;;;17.47;54.36;96637.27;105186;1260;74650;-32
2023/12/01 00:06:27;;;;;;;4.00;3.00;;;;;;;17.48;54.40;96639.20;105191;1261;66113;-32
2023/12/01 00:08:54;;;;;;;3.00;2.70;;;;;;;17.48;54.41;96639.59;105131;1259;72662;-32
2023/12/01 00:11:21;;;;;;;3.40;3.00;;;;;;;17.47;54.38;96644.06;105148;1261;61254;-32
2023/12/01 00:13:49;;;;;;;3.80;2.80;;;;;;;17.47;54.39;96645.77;105197;1258;61360;-32
2023/12/01 00:16:16;;;;;;;3.20;2.90;;;;;;;17.46;54.33;96651.40;105155;1259;74053;-32
2023/12/01 00:18:43;;;;;;;3.10;2.80;;;;;;;17.46;54.35;96648.46;105244;1259;65156;-31
2023/12/01 00:21:11;;;;;;;2.90;2.70;;;;;;;17.46;54.33;96644.59;105181;1261;72564;-32
2023/12/01 00:23:38;;;;;;;3.10;2.50;;;;;;;17.46;54.33;96641.95;105220;1261;61268;-32
2023/12/01 00:26:06;;;;;;;3.90;2.80;;;;;;;17.46;54.39;96643.65;105122;1258;61252;-32
2023/12/01 00:28:36;;;;;;;3.40;2.80;;;;;;;17.45;54.35;96635.92;105108;1258;74552;-32
2023/12/01 00:31:03;;;;;;;3.10;2.80;;;;;;;17.45;54.25;96631.97;105167;1260;66028;-31
2023/12/01 00:33:31;;;;;;;4.00;2.70;;;;;;;17.45;54.32;96637.45;105204;1260;72580;-31
2023/12/01 00:36:00;;;;;;;3.00;2.60;;;;;;;17.45;54.31;96638.55;105202;1261;61245;-32
2023/12/01 00:38:27;;;;;;;3.50;3.10;;;;;;;17.45;54.31;96635.76;105176;1260;61243;-31
2023/12/01 00:40:54;;;;;;;2.80;2.50;;;;;;;17.45;54.25;96635.36;105171;1257;74905;-31
2023/12/01 00:43:22;;;;;;;3.00;2.70;;;;;;;17.45;54.31;96637.61;105161;1260;66245;-32
2023/12/01 00:45:49;;;;;;;3.20;2.80;;;;;;;17.44;54.28;96634.98;105131;1257;72722;-32
2023/12/01 00:48:17;;;;;;;3.50;2.70;;;;;;;17.44;54.26;96632.52;105120;1260;61234;-31
2023/12/01 00:50:44;;;;;;;3.20;2.80;;;;;;;17.44;54.31;96630.02;105131;1258;61253;-31
2023/12/01 00:53:11;;;;;;;2.50;2.30;;;;;;;17.44;54.17;96630.41;105141;1259;74579;-32
2023/12/01 00:55:39;;;;;;;3.30;2.80;;;;;;;17.44;54.19;96623.91;105134;1260;65809;-32
2023/12/01 00:58:06;;;;;;;3.30;2.50;;;;;;;17.43;54.26;96624.14;105082;1259;73066;-32
2023/12/01 01:00:33;;;;;;;3.10;2.80;;;;;;;17.43;54.20;96624.29;105133;1260;61264;-32
2023/12/01 01:03:01;;;;;;;2.50;2.30;;;;;;;17.43;54.21;96625.91;105163;1259;61328;-32
2023/12/01 01:05:28;;;;;;;2.70;2.50;;;;;;;17.43;54.22;96626.15;105010;1263;74441;-32
2023/12/01 01:07:56;;;;;;;3.70;2.70;;;;;;;17.42;54.13;96635.19;105216;1261;66356;-33
2023/12/01 01:10:23;;;;;;;4.40;3.00;;;;;;;17.42;54.20;96631.09;105120;1259;72570;-32
2023/12/01 01:12:51;;;;;;;3.40;3.00;;;;;;;17.42;54.20;96625.13;105331;1260;61336;-31
2023/12/01 01:15:19;;;;;;;3.30;2.80;;;;;;;17.42;54.11;96619.73;105602;1258;61325;-32
2023/12/01 01:17:46;;;;;;;3.30;2.70;;;;;;;17.42;54.09;96608.80;105500;1259;74581;-31
2023/12/01 01:20:13;;;;;;;2.90;2.60;;;;;;;17.41;54.04;96607.48;105433;1260;66247;-31
2023/12/01 01:22:41;;;;;;;3.20;2.80;;;;;;;17.41;54.10;96605.55;105527;1257;72590;-31
2023/12/01 01:25:09;;;;;;;3.30;2.70;;;;;;;17.41;54.09;96602.69;105233;1261;61153;-31
2023/12/01 01:27:36;;;;;;;2.70;2.30;;;;;;;17.41;54.10;96596.42;105652;1258;61203;-32
2023/12/01 01:30:05;;;;;;;3.60;2.70;;;;;;;17.40;54.13;96590.93;105588;1260;74586;-32
2023/12/01 01:32:32;;;;;;;3.10;2.80;;;;;;;17.41;54.13;96587.99;105599;1259;67366;-31
2023/12/01 01:34:59;;;;;;;3.00;2.60;;;;;;;17.41;54.06;96596.34;105580;1259;72637;-31
2023/12/01 01:37:27;;;;;;;3.00;2.50;;;;;;;17.40;54.06;96592.33;105660;1262;61221;-32
2023/12/01 01:39:54;;;;;;;3.20;2.70;;;;;;;17.40;54.06;96593.71;105552;1259;61337;-32
2023/12/01 01:42:21;;;;;;;2.80;2.40;;;;;;;17.40;54.04;96601.61;105550;1258;74610;-31
2023/12/01 01:44:49;;;;;;;3.90;2.90;;;;;;;17.40;54.08;96592.70;105341;1261;65384;-31
2023/12/01 01:47:16;;;;;;;3.80;2.70;;;;;;;17.40;54.05;96585.36;105424;1259;72632;-32
2023/12/01 01:49:44;;;;;;;3.00;2.70;;;;;;;17.40;54.04;96584.66;105382;1261;61270;-31
2023/12/01 01:52:11;;;;;;;2.90;2.70;;;;;;;17.39;54.06;96573.36;104974;1259;61357;-31
2023/12/01 01:54:39;;;;;;;3.10;2.60;;;;;;;17.39;54.08;96590.91;105265;1261;74716;-31
2023/12/01 01:57:06;;;;;;;3.30;2.70;;;;;;;17.39;54.02;96583.33;105396;1262;65596;-31
2023/12/01 01:59:33;;;;;;;3.60;3.00;;;;;;;17.38;54.00;96589.11;105079;1259;72648;-31
2023/12/01 02:02:01;;;;;;;3.80;2.90;;;;;;;17.39;54.03;96592.98;105324;1263;61290;-31
2023/12/01 02:04:29;;;;;;;3.50;2.30;;;;;;;17.38;53.98;96583.85;105227;1259;61287;-31
2023/12/01 02:06:56;;;;;;;3.00;2.60;;;;;;;17.39;53.91;96582.16;105090;1257;75171;-31
2023/12/01 02:09:24;;;;;;;2.90;2.60;;;;;;;17.39;53.97;96571.18;105508;1260;65575;-32
2023/12/01 02:11:51;;;;;;;5.60;2.70;;;;;;;17.38;54.00;96565.91;105276;1259;72447;-32
2023/12/01 02:14:21;;;;;;;3.60;2.80;;;;;;;17.38;54.00;96570.63;105506;1261;61242;-31
2023/12/01 02:16:49;;;;;;;2.70;2.50;;;;;;;17.38;53.93;96574.80;105612;1259;61267;-31
2023/12/01 02:19:17;;;;;;;4.00;2.70;;;;;;;17.38;53.94;96574.73;105382;1259;74544;-31
2023/12/01 02:21:45;;;;;;;2.80;2.50;;;;;;;17.38;53.93;96577.20;105482;1261;66134;-32
2023/12/01 02:24:13;;;;;;;3.30;2.80;;;;;;;17.38;53.88;96562.44;105354;1264;72607;-31
2023/12/01 02:26:41;;;;;;;6.00;2.80;;;;;;;17.37;53.87;96557.41;105608;1261;61348;-31
2023/12/01 02:29:08;;;;;;;3.00;2.70;;;;;;;17.37;53.90;96559.27;105497;1259;61343;-32
2023/12/01 02:31:36;;;;;;;2.60;2.40;;;;;;;17.37;53.89;96561.42;105569;1261;75131;-31
2023/12/01 02:34:04;;;;;;;3.80;2.70;;;;;;;17.37;53.86;96571.33;105314;1263;65856;-31
2023/12/01 02:36:31;;;;;;;2.60;2.40;;;;;;;17.37;53.88;96581.21;105620;1259;72371;-31
2023/12/01 02:38:59;;;;;;;3.00;2.50;;;;;;;17.36;53.95;96560.71;105611;1261;61234;-31
2023/12/01 02:41:26;;;;;;;4.00;2.80;;;;;;;17.36;53.88;96533.19;105351;1260;61339;-31
2023/12/01 02:43:54;;;;;;;3.30;2.70;;;;;;;17.36;53.84;96540.22;105445;1257;74752;-31
2023/12/01 02:46:22;;;;;;;2.90;2.60;;;;;;;17.37;53.84;96554.54;105707;1259;66318;-31
2023/12/01 02:48:51;;;;;;;3.80;2.80;;;;;;;17.36;53.89;96577.64;105370;1259;72601;-31
2023/12/01 02:51:18;;;;;;;2.90;2.60;;;;;;;17.36;53.87;96588.23;105590;1259;61092;-31
2023/12/01 02:53:46;;;;;;;4.20;2.80;;;;;;;17.36;53.82;96576.18;105407;1257;61235;-31
2023/12/01 02:56:13;;;;;;;2.90;2.60;;;;;;;17.37;53.84;96566.29;105283;1261;74581;-31
2023/12/01 02:58:41;;;;;;;2.60;2.40;;;;;;;17.36;53.83;96563.65;105054;1259;65965;-31
2023/12/01 03:01:08;;;;;;;4.00;2.90;;;;;;;17.36;53.79;96559.87;105366;1259;73089;-31
2023/12/01 03:03:36;;;;;;;3.10;2.70;;;;;;;17.36;53.87;96568.45;105608;1262;61252;-31
2023/12/01 03:06:03;;;;;;;3.50;2.80;;;;;;;17.36;53.81;96582.13;105622;1257;61327;-31
2023/12/01 03:08:31;;;;;;;2.80;2.40;;;;;;;17.36;53.84;96582.20;105482;1262;74420;-31
2023/12/01 03:10:58;;;;;;;2.80;2.10;;;;;;;17.35;53.84;96580.27;105199;1261;65020;-31
2023/12/01 03:13:26;;;;;;;2.80;2.60;;;;;;;17.35;53.75;96570.91;105087;1257;72684;-32
2023/12/01 03:15:53;;;;;;;2.80;2.60;;;;;;;17.35;53.74;96563.34;105247;1261;61242;-31
2023/12/01 03:18:21;;;;;;;3.30;2.50;;;;;;;17.35;53.73;96569.69;105204;1259;61329;-31
2023/12/01 03:20:50;;;;;;;3.20;2.90;;;;;;;17.35;53.74;96566.89;105600;1259;73404;-32
2023/12/01 03:23:17;;;;;;;3.80;2.90;;;;;;;17.36;53.77;96566.74;105601;1259;66127;-32
2023/12/01 03:25:44;;;;;;;2.70;2.50;;;;;;;17.35;53.76;96573.77;105539;1257;71598;-32
2023/12/01 03:28:11;;;;;;;3.10;2.80;;;;;;;17.34;53.76;96587.38;105589;1262;61384;-32
2023/12/01 03:30:39;;;;;;;2.80;2.50;;;;;;;17.34;53.69;96588.45;105520;1259;61264;-32
2023/12/01 03:33:06;;;;;;;3.30;2.60;;;;;;;17.34;53.71;96583.42;105224;1260;74498;-32
2023/12/01 03:35:34;;;;;;;4.20;2.40;;;;;;;17.34;53.70;96584.03;106036;1261;66070;-32
2023/12/01 03:38:01;;;;;;;2.70;2.50;;;;;;;17.34;53.70;96590.14;105648;1259;72475;-32
2023/12/01 03:40:28;;;;;;;3.50;2.60;;;;;;;17.34;53.69;96586.13;105622;1261;61942;-32
2023/12/01 03:42:56;;;;;;;2.80;2.50;;;;;;;17.34;53.65;96587.98;105547;1259;61413;-31
2023/12/01 03:45:23;;;;;;;2.80;2.50;;;;;;;17.34;53.59;96583.57;105505;1259;74378;-32
2023/12/01 03:47:51;;;;;;;3.30;2.70;;;;;;;17.34;53.63;96583.73;105170;1262;66084;-32
2023/12/01 03:50:19;;;;;;;3.30;3.00;;;;;;;17.34;53.65;96564.39;105138;1259;72663;-32
2023/12/01 03:52:49;;;;;;;3.10;2.80;;;;;;;17.34;53.71;96565.02;105187;1261;62041;-32
2023/12/01 03:55:16;;;;;;;3.00;2.70;;;;;;;17.33;53.63;96564.70;105588;1261;61147;-31
2023/12/01 03:57:44;;;;;;;3.10;2.80;;;;;;;17.33;53.59;96561.61;105519;1260;74520;-31
2023/12/01 04:00:15;;;;;;;3.20;2.90;;;;;;;17.34;53.57;96566.41;105458;1260;65413;-31
2023/12/01 04:02:43;;;;;;;3.00;2.70;;;;;;;17.33;53.59;96556.20;105240;1257;71056;-32
2023/12/01 04:05:22;;;;;;;3.00;2.70;;;;;;;17.33;53.53;96543.45;105315;1259;61293;-31
2023/12/01 04:07:51;;;;;;;3.10;2.50;;;;;;;17.33;53.67;96567.42;105571;1258;61280;-31
2023/12/01 04:10:24;;;;;;;3.80;2.80;;;;;;;17.33;53.55;96586.98;105309;1258;74591;-31
2023/12/01 04:12:54;;;;;;;3.20;2.60;;;;;;;17.33;53.53;96578.39;105170;1260;65916;-31
2023/12/01 04:15:25;;;;;;;3.50;2.50;;;;;;;17.33;53.53;96574.44;105333;1261;71423;-32
2023/12/01 04:17:53;;;;;;;2.80;2.50;;;;;;;17.33;53.51;96588.75;105289;1261;61358;-32
2023/12/01 04:20:21;;;;;;;2.60;2.40;;;;;;;17.32;53.58;96604.82;105298;1259;61245;-32
2023/12/01 04:22:50;;;;;;;3.10;2.80;;;;;;;17.33;53.52;96600.34;105220;1261;73714;-32
2023/12/01 04:25:18;;;;;;;3.20;2.70;;;;;;;17.33;53.55;96595.32;105415;1262;65166;-32
2023/12/01 04:27:46;;;;;;;2.70;2.50;;;;;;;17.33;53.58;96582.64;105287;1262;72643;-32
2023/12/01 04:30:14;;;;;;;3.40;2.60;;;;;;;17.33;53.59;96564.92;105408;1261;61228;-32
2023/12/01 04:32:45;;;;;;;3.10;2.80;;;;;;;17.32;53.49;96561.21;105407;1260;61357;-32
2023/12/01 04:35:13;;;;;;;3.10;2.80;;;;;;;17.32;53.52;96575.98;105203;1262;74582;-32
2023/12/01 04:37:41;;;;;;;3.00;2.60;;;;;;;17.32;53.49;96571.55;105222;1260;66299;-32
2023/12/01 04:40:14;;;;;;;2.60;2.30;;;;;;;17.32;53.50;96560.73;105182;1259;71524;-32
2023/12/01 04:42:46;;;;;;;3.30;2.90;;;;;;;17.33;53.38;96560.13;105220;1257;62000;-32
2023/12/01 04:45:21;;;;;;;3.40;2.70;;;;;;;17.32;53.42;96549.38;105396;1259;61138;-32
2023/12/01 04:47:52;;;;;;;3.00;2.70;;;;;;;17.32;53.40;96555.48;105596;1262;74620;-32
2023/12/01 04:50:24;;;;;;;2.50;2.30;;;;;;;17.32;53.43;96555.17;105553;1261;66298;-32
2023/12/01 04:52:55;;;;;;;2.90;2.60;;;;;;;17.31;53.43;96553.46;105309;1262;73115;-32
2023/12/01 04:55:28;;;;;;;3.10;2.80;;;;;;;17.32;53.47;96563.36;105376;1261;61222;-32
2023/12/01 04:57:56;;;;;;;2.90;2.60;;;;;;;17.31;53.45;96568.77;105459;1259;61337;-33
2023/12/01 05:00:25;;;;;;;3.30;2.70;;;;;;;17.32;53.45;96560.58;105259;1261;74580;-33
2023/12/01 05:02:55;;;;;;;2.80;2.30;;;;;;;17.31;53.43;96553.61;105357;1258;65260;-33
2023/12/01 05:05:23;;;;;;;4.70;2.90;;;;;;;17.31;53.45;96550.52;105569;1259;72599;-31
2023/12/01 05:07:53;;;;;;;3.80;2.60;;;;;;;17.31;53.36;96554.77;105627;1261;61213;-32
2023/12/01 05:10:21;;;;;;;3.00;2.70;;;;;;;17.31;53.47;96537.06;105578;1258;61250;-32
2023/12/01 05:12:54;;;;;;;3.30;2.80;;;;;;;17.31;53.33;96516.03;105590;1259;73109;-32
2023/12/01 05:15:24;;;;;;;3.10;2.60;;;;;;;17.31;53.35;96533.05;105594;1259;65738;-33
2023/12/01 05:17:55;;;;;;;3.30;2.90;;;;;;;17.31;53.42;96569.15;105576;1261;71440;-33
2023/12/01 05:20:23;;;;;;;3.40;3.10;;;;;;;17.31;53.38;96575.49;105277;1261;61240;-32
2023/12/01 05:22:52;;;;;;;3.00;2.70;;;;;;;17.31;53.34;96570.38;105558;1260;61675;-32
2023/12/01 05:25:20;;;;;;;3.10;2.70;;;;;;;17.31;53.34;96567.30;105612;1257;73187;-31
2023/12/01 05:27:49;;;;;;;2.80;2.60;;;;;;;17.30;53.30;96547.80;105547;1261;66266;-31
2023/12/01 05:30:17;;;;;;;3.40;2.90;;;;;;;17.30;53.35;96553.21;105194;1260;71319;-33
2023/12/01 05:32:46;;;;;;;3.60;2.60;;;;;;;17.31;53.31;96553.84;105194;1261;61224;-33
2023/12/01 05:35:14;;;;;;;3.60;2.40;;;;;;;17.30;53.28;96542.70;105337;1257;61380;-32
2023/12/01 05:37:46;;;;;;;5.50;3.60;;;;;;;17.29;53.36;96573.77;105458;1259;74436;-32
2023/12/01 05:40:35;;;;;;;5.00;4.00;;;;;;;17.29;53.03;96580.18;104971;1261;66702;-34
2023/12/01 05:43:04;;;;;;;4.20;3.60;;;;;;;17.29;52.82;96567.90;105417;1258;73005;-33
2023/12/01 05:45:33;;;;;;;4.60;3.80;;;;;;;17.29;52.80;96557.52;106113;1257;61241;-32
2023/12/01 05:48:02;;;;;;;6.20;4.40;;;;;;;17.30;52.60;96547.34;107513;1256;61242;-34
2023/12/01 05:50:31;;;;;;;5.40;4.90;;;;;;;17.32;52.59;96538.55;106765;1260;74649;-31
2023/12/01 05:53:00;;;;;;;5.80;4.60;;;;;;;17.34;52.46;96521.96;105242;1261;64816;-33
2023/12/01 05:55:33;;;;;;;5.40;4.50;;;;;;;17.37;52.42;96529.48;105490;1262;73772;-32
2023/12/01 05:58:10;;;;;;;4.70;4.20;;;;;;;17.38;52.32;96546.19;105519;1262;61458;-32
2023/12/01 06:00:38;;;;;;;5.20;4.70;;;;;;;17.39;52.25;96558.43;105843;1258;61369;-32
2023/12/01 06:03:07;;;;;;;4.60;3.90;;;;;;;17.40;52.20;96569.90;105579;1261;74538;-32
2023/12/01 06:05:36;;;;;;;5.60;4.20;;;;;;;17.41;52.15;96560.93;107494;1259;66130;-32
2023/12/01 06:08:10;;;;;;;5.70;4.00;;;;;;;17.42;52.14;96551.05;105397;1262;72503;-32
2023/12/01 06:10:39;;;;;;;;;;;;;;;17.41;52.08;96562.70;105476;1257;61227;-32
2023/12/01 06:13:07;;;;;;;4.40;3.90;;;;;;;17.40;52.10;96543.85;105197;1271;61245;-32
2023/12/01 06:15:35;;;;;;;7.10;4.10;;;;;;;17.40;52.31;96539.05;105509;1263;74638;-33
2023/12/01 06:18:03;;;;;;;4.70;4.20;;;;;;;17.41;52.47;96544.54;105224;1257;66269;-32
2023/12/01 06:20:31;;;;;;;5.10;4.20;;;;;;;17.42;52.48;96546.88;105145;1259;74139;-32
2023/12/01 06:23:00;;;;;;;5.10;4.20;;;;;;;17.43;52.61;96552.91;105601;1259;61267;-31
2023/12/01 06:25:30;;;;;;;5.70;4.30;;;;;;;17.45;52.76;96555.80;106098;1259;61270;-31
2023/12/01 06:28:11;;;;;;;5.40;4.00;;;;;;;17.47;53.02;96570.83;105337;1269;75462;-31
2023/12/01 06:31:12;;;;;;;5.10;4.00;;;;;;;17.49;53.24;96573.95;105147;1263;67632;-31
2023/12/01 06:33:39;;;;;;;5.40;4.00;;;;;;;17.51;53.37;96562.48;105124;1261;72676;-31
2023/12/01 06:36:07;;;;;;;4.40;3.80;;;;;;;17.54;53.51;96571.41;105032;1261;61409;-30
2023/12/01 06:38:35;;;;;;;4.40;4.00;;;;;;;17.56;53.63;96584.73;105349;1263;61134;-31
2023/12/01 06:41:02;;;;;;;4.40;3.90;;;;;;;17.58;53.60;96568.73;105193;1262;75575;-32
2023/12/01 06:43:30;;;;;;;5.10;4.20;;;;;;;17.60;53.57;96569.08;107924;1261;66943;-32
2023/12/01 06:45:58;;;;;;;6.70;4.20;;;;;;;17.61;53.49;96582.16;105051;1262;72406;-32
2023/12/01 06:48:26;;;;;;;5.50;3.90;;;;;;;17.62;53.51;96588.74;105199;1261;61357;-32
2023/12/01 06:50:53;;;;;;;5.90;4.50;;;;;;;17.62;53.42;96579.48;105189;1262;61275;-31
2023/12/01 06:53:21;;;;;;;4.30;3.90;;;;;;;17.63;53.32;96584.13;105406;1258;74605;-32
2023/12/01 06:55:48;;;;;;;4.20;3.80;;;;;;;17.64;53.31;96600.53;105441;1261;66288;-35
2023/12/01 06:58:18;;;;;;;5.40;4.10;;;;;;;17.65;53.32;96600.23;104809;1263;187402;-32
2023/12/01 07:00:46;;;;;;;4.10;3.70;;;;;;;17.65;53.33;96604.27;105155;1263;61348;-31
2023/12/01 07:03:15;;;;;;;5.10;4.20;;;;;;;17.66;53.41;96600.25;106058;1256;60474;-32
2023/12/01 07:05:45;;;;;;;6.40;3.90;;;;;;;17.66;53.55;96606.81;107606;1257;74619;-32
2023/12/01 07:08:12;;;;;;;5.60;4.10;;;;;;;17.68;53.67;96604.90;105434;1262;65132;-31
2023/12/01 07:10:41;;;;;;;6.40;4.40;;;;;;;17.68;53.81;96601.98;105175;1262;72612;-31
2023/12/01 07:13:09;;;;;;;6.90;4.10;;;;;;;17.69;53.86;96605.23;105056;1263;61238;-31
2023/12/01 07:15:37;;;;;;;5.80;3.90;;;;;;;17.70;53.97;96601.61;108968;1257;59044;-33
2023/12/01 07:18:05;;;;;;;7.30;4.60;;;;;;;17.70;53.92;96595.27;108946;1258;73406;-36
2023/12/01 07:20:33;;;;;;;5.00;4.20;;;;;;;17.72;54.06;96619.27;106260;1261;64879;-34
2023/12/01 07:23:01;;;;;;;5.50;4.60;;;;;;;17.73;54.00;96624.46;105182;1257;72640;-31
2023/12/01 07:25:33;;;;;;;8.30;5.10;;;;;;;17.74;53.85;96634.77;104862;1264;61406;-33
2023/12/01 07:28:02;;;;;;;6.00;5.20;;;;;;;17.75;53.36;96651.04;104929;1262;61200;-31
2023/12/01 07:30:30;;;;;;;7.70;5.80;;;;;;;17.74;52.86;96659.77;105795;1261;74652;-32
2023/12/01 07:33:00;;;;;;;8.80;5.90;;;;;;;17.74;52.32;96655.58;104951;1261;66069;-32
2023/12/01 07:35:28;;;;;;;6.80;5.60;;;;;;;17.72;52.23;96651.69;104936;1263;74001;-32
2023/12/01 07:37:55;;;;;;;8.80;5.70;;;;;;;17.71;52.24;96645.56;105237;1265;61231;-33
2023/12/01 07:40:23;;;;;;;8.80;5.50;;;;;;;17.70;52.29;96649.52;104947;1257;61486;-32
2023/12/01 07:42:54;;;;;;;6.90;5.40;;;;;;;17.72;52.41;96639.15;105448;1262;74485;-32
2023/12/01 07:45:22;;;;;;;6.40;5.20;;;;;;;17.72;52.52;96631.57;108996;1258;66481;-32
2023/12/01 07:47:50;;;;;;;7.40;5.10;;;;;;;17.72;52.65;96619.82;105838;1260;73043;-32
2023/12/01 07:50:18;;;;;;;8.90;5.10;;;;;;;17.73;52.72;96625.33;105161;1257;61352;-32
2023/12/01 07:52:47;;;;;;;7.00;5.30;;;;;;;17.74;52.82;96639.18;105009;1262;61887;-31
2023/12/01 07:55:15;;;;;;;5.40;4.80;;;;;;;17.76;52.90;96641.68;105230;1258;73721;-31
2023/12/01 07:57:44;;;;;;;5.20;4.70;;;;;;;17.77;53.03;96622.74;105629;1263;65228;-31
2023/12/01 08:00:16;;;;;;;5.80;5.10;;;;;;;17.78;53.19;96610.83;104888;1260;71725;-32
2023/12/01 08:02:51;;;;;;;8.30;4.60;;;;;;;17.79;53.21;96622.54;105660;1256;61351;-32
2023/12/01 08:05:22;;;;;;;5.40;4.50;;;;;;;17.81;53.60;96642.52;105212;1262;62460;-32
2023/12/01 08:07:52;;;;;;;6.90;4.80;;;;;;;17.83;53.76;96652.67;105371;1261;74522;-33
2023/12/01 08:10:23;;;;;;;4.80;4.20;;;;;;;17.84;53.97;96646.58;105375;1262;68248;-34
2023/12/01 08:12:56;;;;;;;7.30;4.30;;;;;;;17.87;54.07;96654.41;105300;1257;72434;-33
2023/12/01 08:15:31;;;;;;;5.00;4.30;;;;;;;17.88;54.23;96676.33;105493;1262;61337;-34
2023/12/01 08:18:15;;;;;;;6.50;4.80;;;;;;;17.91;54.40;96680.70;105562;1258;61314;-34
2023/12/01 08:20:49;;;;;;;7.30;4.30;;;;;;;17.93;54.53;96692.56;105479;1258;74294;-34
2023/12/01 08:23:22;;;;;;;6.50;5.90;;;;;;;17.94;53.90;96687.31;105304;1261;67027;-32
2023/12/01 08:25:52;;;;;;;9.30;6.80;;;;;;;17.94;52.91;96682.98;105332;1262;72905;-33
2023/12/01 08:28:19;;;;;;;8.80;7.40;;;;;;;17.92;52.22;96664.48;104857;1258;61877;-32
2023/12/01 08:30:48;;;;;;;8.00;6.80;;;;;;;17.91;51.88;96651.23;105476;1261;61245;-33
2023/12/01 08:33:17;;;;;;;8.90;7.70;;;;;;;17.90;51.35;96653.06;106514;1260;75457;-33
2023/12/01 08:35:45;;;;;;;9.20;8.30;;;;;;;17.87;50.60;96663.09;105486;1274;66158;-31
2023/12/01 08:38:25;;;;;;;9.00;8.20;;;;;;;17.84;49.89;96671.55;105399;1261;72875;-33
2023/12/01 08:40:53;;;;;;;9.40;8.50;;;;;;;17.80;49.40;96673.45;105375;1257;62818;-33
2023/12/01 08:43:21;;;;;;;9.00;8.10;;;;;;;17.75;48.96;96673.55;105189;1262;61266;-30
2023/12/01 08:45:49;;;;;;;10.20;8.70;;;;;;;17.73;48.66;96685.80;105174;1260;73636;-30
2023/12/01 08:48:16;;;;;;;10.70;9.00;;;;;;;17.68;48.34;96690.71;105463;1260;67121;-30
2023/12/01 08:50:46;;;;;;;10.30;9.30;;;;;;;17.64;48.05;96686.09;104901;1262;72676;-31
2023/12/01 08:53:14;;;;;;;10.30;9.20;;;;;;;17.60;47.92;96686.98;105073;1263;61135;-32
2023/12/01 08:55:41;;;;;;;12.10;9.60;;;;;;;17.57;47.61;96692.81;107065;1257;61225;-31
2023/12/01 08:58:09;;;;;;;10.30;9.20;;;;;;;17.54;47.32;96702.13;105000;1257;74645;-32
2023/12/01 09:00:36;;;;;;;10.90;9.60;;;;;;;17.51;47.17;96706.33;105111;1271;67304;-32
2023/12/01 09:03:05;;;;;;;10.00;8.70;;;;;;;17.49;46.83;96712.61;105115;1262;72471;-31
2023/12/01 09:05:33;;;;;;;10.30;9.30;;;;;;;17.46;46.79;96717.74;105544;1261;61280;-32
2023/12/01 09:08:04;;;;;;;11.50;10.30;;;;;;;17.43;46.35;96719.48;104964;1263;61369;-31
2023/12/01 09:10:32;;;;;;;10.50;9.50;;;;;;;17.40;46.18;96712.70;104974;1257;75428;-32
2023/12/01 09:12:59;;;;;;;10.50;9.40;;;;;;;17.37;46.03;96716.54;105185;1261;67248;-31
2023/12/01 09:15:29;;;;;;;11.50;10.30;;;;;;;17.35;45.85;96719.20;105653;1257;72792;-31
2023/12/01 09:17:56;;;;;;;11.60;10.40;;;;;;;17.30;45.40;96711.71;105040;1261;61322;-33
2023/12/01 09:20:25;;;;;;;11.60;10.40;;;;;;;17.25;45.19;96701.81;105015;1258;61254;-31
2023/12/01 09:22:52;;;;;;;11.70;10.30;;;;;;;17.18;44.66;96703.02;105375;1258;75036;-32
2023/12/01 09:25:20;;;;;;;11.40;10.30;;;;;;;17.11;44.62;96707.02;105136;1264;66970;-32
2023/12/01 09:27:47;;;;;;;11.40;10.10;;;;;;;17.06;44.65;96704.39;105022;1257;74258;-31
2023/12/01 09:30:16;;;;;;;13.90;10.00;;;;;;;17.04;44.66;96698.95;105283;1261;61503;-32
2023/12/01 09:32:45;;;;;;;13.40;9.80;;;;;;;17.02;44.63;96691.89;106480;1258;61368;-32
2023/12/01 09:35:15;;;;;;;12.20;10.00;;;;;;;17.02;44.54;96682.67;105220;1257;75860;-30
2023/12/01 09:38:04;;;;;;;11.30;10.10;;;;;;;17.02;44.49;96687.23;104927;1263;65292;-30
2023/12/01 09:40:35;;;;;;;12.10;9.60;;;;;;;17.02;44.43;96693.19;105546;1260;71874;-32
2023/12/01 09:43:02;;;;;;;9.70;8.60;;;;;;;17.01;44.44;96690.93;105708;1264;61240;-33
2023/12/01 09:45:30;;;;;;;10.10;9.10;;;;;;;17.03;44.70;96685.39;104936;1262;61285;-34
2023/12/01 09:47:59;;;;;;;10.40;8.70;;;;;;;17.05;45.04;96685.66;108084;1258;75725;-32
2023/12/01 09:50:26;;;;;;;10.30;8.80;;;;;;;17.07;45.33;96696.50;106381;1260;67316;-32
2023/12/01 09:52:54;;;;;;;9.80;8.70;;;;;;;17.09;45.63;96702.89;105478;1257;72689;-32
2023/12/01 09:55:22;;;;;;;10.50;8.40;;;;;;;17.12;45.88;96696.83;104988;1260;61231;-32
2023/12/01 09:57:52;;;;;;;8.90;8.00;;;;;;;17.14;46.06;96698.86;105012;1257;61230;-32
2023/12/01 10:00:19;;;;;;;9.50;7.90;;;;;;;17.16;46.21;96701.13;104889;1263;76865;-31
2023/12/01 10:02:48;;;;;;;9.00;8.10;;;;;;;17.19;46.37;96694.77;105174;1263;66824;-32
2023/12/01 10:05:18;;;;;;;9.30;7.80;;;;;;;17.20;46.57;96695.25;104949;1258;73224;-34
2023/12/01 10:07:46;;;;;;;9.00;7.90;;;;;;;17.23;46.73;96688.48;105205;1260;61222;-36
2023/12/01 10:10:20;;;;;;;8.60;7.70;;;;;;;17.25;46.91;96685.59;104991;1258;61152;-33
2023/12/01 10:13:04;;;;;;;9.40;7.50;;;;;;;17.27;47.02;96683.36;104951;1257;74563;-33
2023/12/01 10:15:33;;;;;;;8.10;7.20;;;;;;;17.30;47.16;96696.02;106332;1258;65130;-32
2023/12/01 10:18:11;;;;;;;10.10;7.90;;;;;;;17.32;47.32;96700.91;106283;1257;72659;-34
2023/12/01 10:20:58;;;;;;;8.20;7.40;;;;;;;17.34;47.49;96707.05;104971;1257;61251;-34
2023/12/01 10:23:27;;;;;;;8.60;7.30;;;;;;;17.36;47.60;96717.30;105349;1258;61170;-34
2023/12/01 10:25:56;;;;;;;7.80;6.90;;;;;;;17.37;47.73;96719.02;105389;1257;75422;-35
2023/12/01 10:28:26;;;;;;;7.60;6.50;;;;;;;17.38;47.78;96711.29;104957;1264;66928;-33
2023/12/01 10:30:58;;;;;;;7.90;7.10;;;;;;;17.40;47.86;96702.28;104920;1258;73452;-32
2023/12/01 10:33:26;;;;;;;9.30;7.00;;;;;;;17.41;48.00;96701.05;104968;1261;61588;-32
2023/12/01 10:36:10;;;;;;;8.50;6.80;;;;;;;17.43;48.14;96701.54;105409;1257;61251;-32
2023/12/01 10:38:37;;;;;;;8.20;6.90;;;;;;;17.44;48.30;96715.78;104900;1264;76168;-31
2023/12/01 10:41:05;;;;;;;7.70;6.50;;;;;;;17.44;48.43;96717.03;105313;1260;65436;-32
2023/12/01 10:43:32;;;;;;;6.90;6.20;;;;;;;17.45;48.51;96714.48;105184;1258;72601;-32
2023/12/01 10:46:02;;;;;;;7.80;7.00;;;;;;;17.46;48.64;96710.33;105374;1260;61329;-32
2023/12/01 10:48:31;;;;;;;8.00;6.40;;;;;;;17.47;48.83;96707.95;105161;1258;61309;-30
2023/12/01 10:50:58;;;;;;;7.10;6.20;;;;;;;17.48;49.13;96728.77;105165;1258;74848;-33
2023/12/01 10:53:26;;;;;;;7.20;6.40;;;;;;;17.49;49.32;96736.97;104966;1264;66256;-32
2023/12/01 10:55:54;;;;;;;6.60;5.80;;;;;;;17.49;49.38;96737.91;105052;1258;73436;-32
2023/12/01 10:58:23;;;;;;;7.70;6.00;;;;;;;17.49;49.52;96729.40;105129;1257;61243;-30
2023/12/01 11:00:52;;;;;;;6.60;5.70;;;;;;;17.50;49.53;96734.05;105173;1261;61340;-32
2023/12/01 11:03:22;;;;;;;9.20;6.10;;;;;;;17.51;49.59;96738.55;105119;1257;74240;-32
2023/12/01 11:06:04;;;;;;;6.70;6.10;;;;;;;17.51;49.86;96734.34;105100;1257;66289;-33
2023/12/01 11:08:46;;;;;;;6.60;5.90;;;;;;;17.51;49.87;96727.29;105559;1258;73685;-34
2023/12/01 11:11:24;;;;;;;6.90;6.20;;;;;;;17.52;49.95;96731.17;106141;1257;61546;-34
2023/12/01 11:13:54;;;;;;;6.10;5.50;;;;;;;17.52;49.95;96729.31;105190;1258;61288;-33
2023/12/01 11:16:22;;;;;;;6.20;5.60;;;;;;;17.52;49.99;96720.80;105256;1258;74596;-34
2023/12/01 11:18:49;;;;;;;6.60;5.70;;;;;;;17.52;49.95;96718.49;105237;1258;67200;-32
2023/12/01 11:21:17;;;;;;;7.20;5.70;;;;;;;17.52;50.02;96712.91;105431;1261;72624;-33
2023/12/01 11:23:44;;;;;;;6.50;5.60;;;;;;;17.52;50.03;96709.20;105308;1263;61330;-31
2023/12/01 11:26:12;;;;;;;8.40;5.60;;;;;;;17.52;49.94;96710.90;105061;1258;61323;-33
2023/12/01 11:31:08;;;;;;;7.80;5.80;;;;;;;17.51;50.01;96731.63;105344;1261;66831;-33
2023/12/01 11:33:45;;;;;;;6.50;5.20;;;;;;;17.51;50.05;96735.27;105118;1260;72306;-33
2023/12/01 11:36:19;;;;;;;6.80;5.50;;;;;;;17.51;50.13;96740.58;105445;1257;61875;-32